sensor_id;sensor_type;location;lat;lon;timestamp;temperature;humidity
19892;DHT22;10108;50.142;8.724;2023-06-24T00:01:18;19.70;99.90
19892;DHT22;10108;50.142;8.724;2023-06-24T00:03:44;19.70;99.90
19892;DHT22;10108;50.142;8.724;2023-06-24T00:06:14;19.60;99.90
19892;DHT22;10108;50.142;8.724;2023-06-24T00:08:47;19.60;99.90
19892;DHT22;10108;50.142;8.724;2023-06-24T00:11:14;19.60;99.90
19892;DHT22;10108;50.142;8.724;2023-06-24T00:13:41;19.60;99.90
19892;DHT22;10108;50.142;8.724;2023-06-24T00:16:08;19.60;99.90
19892;DHT22;10108;50.142;8.724;2023-06-24T00:18:35;19.50;99.90
19892;DHT22;10108;50.142;8.724;2023-06-24T00:21:02;19.50;99.90
19892;DHT22;10108;50.142;8.724;2023-06-24T00:23:29;19.50;99.90
19892;DHT22;10108;50.142;8.724;2023-06-24T00:25:56;19.50;99.90
19892;DHT22;10108;50.142;8.724;2023-06-24T00:28:23;19.50;99.90
19892;DHT22;10108;50.142;8.724;2023-06-24T00:30:49;19.40;99.90
19892;DHT22;10108;50.142;8.724;2023-06-24T00:33:15;19.40;99.90
19892;DHT22;10108;50.142;8.724;2023-06-24T00:35:46;19.40;99.90
19892;DHT22;10108;50.142;8.724;2023-06-24T00:38:14;19.40;99.90
19892;DHT22;10108;50.142;8.724;2023-06-24T00:40:41;19.40;99.90
19892;DHT22;10108;50.142;8.724;2023-06-24T00:43:08;19.40;99.90
19892;DHT22;10108;50.142;8.724;2023-06-24T00:45:35;19.30;99.90
19892;DHT22;10108;50.142;8.724;2023-06-24T00:48:01;19.30;99.90
19892;DHT22;10108;50.142;8.724;2023-06-24T00:50:29;19.30;99.90
19892;DHT22;10108;50.142;8.724;2023-06-24T00:52:55;19.30;99.90
19892;DHT22;10108;50.142;8.724;2023-06-24T00:55:23;19.30;99.90
19892;DHT22;10108;50.142;8.724;2023-06-24T00:57:51;19.20;99.90
19892;DHT22;10108;50.142;8.724;2023-06-24T01:00:20;19.20;99.90
19892;DHT22;10108;50.142;8.724;2023-06-24T01:02:47;19.20;99.90
19892;DHT22;10108;50.142;8.724;2023-06-24T01:05:14;19.20;99.90
19892;DHT22;10108;50.142;8.724;2023-06-24T01:07:41;19.20;99.90
19892;DHT22;10108;50.142;8.724;2023-06-24T01:10:09;19.10;99.90
19892;DHT22;10108;50.142;8.724;2023-06-24T01:12:37;19.20;99.90
19892;DHT22;10108;50.142;8.724;2023-06-24T01:15:10;19.20;99.90
19892;DHT22;10108;50.142;8.724;2023-06-24T01:18:06;19.20;99.90
19892;DHT22;10108;50.142;8.724;2023-06-24T01:21:26;19.20;99.90
19892;DHT22;10108;50.142;8.724;2023-06-24T01:29:19;19.10;99.90
19892;DHT22;10108;50.142;8.724;2023-06-24T01:31:59;19.00;99.90
19892;DHT22;10108;50.142;8.724;2023-06-24T01:34:33;19.00;99.90
19892;DHT22;10108;50.142;8.724;2023-06-24T01:37:10;19.10;99.90
19892;DHT22;10108;50.142;8.724;2023-06-24T01:39:49;19.10;99.90
19892;DHT22;10108;50.142;8.724;2023-06-24T01:42:17;19.10;99.90
19892;DHT22;10108;50.142;8.724;2023-06-24T01:44:45;19.10;99.90
19892;DHT22;10108;50.142;8.724;2023-06-24T01:47:15;19.10;99.90
19892;DHT22;10108;50.142;8.724;2023-06-24T01:49:45;19.00;99.90
19892;DHT22;10108;50.142;8.724;2023-06-24T01:52:12;19.00;99.90
19892;DHT22;10108;50.142;8.724;2023-06-24T01:54:40;19.10;99.90
19892;DHT22;10108;50.142;8.724;2023-06-24T01:57:08;19.00;99.90
19892;DHT22;10108;50.142;8.724;2023-06-24T01:59:41;19.00;99.90
19892;DHT22;10108;50.142;8.724;2023-06-24T02:02:08;19.00;99.90
19892;DHT22;10108;50.142;8.724;2023-06-24T02:04:35;19.00;99.90
19892;DHT22;10108;50.142;8.724;2023-06-24T02:07:02;19.00;99.90
19892;DHT22;10108;50.142;8.724;2023-06-24T02:09:29;19.00;99.90
19892;DHT22;10108;50.142;8.724;2023-06-24T02:12:00;19.00;99.90
19892;DHT22;10108;50.142;8.724;2023-06-24T02:14:27;19.00;99.90
19892;DHT22;10108;50.142;8.724;2023-06-24T02:16:57;19.00;99.90
19892;DHT22;10108;50.142;8.724;2023-06-24T02:19:29;18.90;99.90
19892;DHT22;10108;50.142;8.724;2023-06-24T02:21:58;18.90;99.90
19892;DHT22;10108;50.142;8.724;2023-06-24T02:24:27;18.80;99.90
19892;DHT22;10108;50.142;8.724;2023-06-24T02:26:56;18.80;99.90
19892;DHT22;10108;50.142;8.724;2023-06-24T02:29:27;18.80;99.90
19892;DHT22;10108;50.142;8.724;2023-06-24T02:31:56;18.80;99.90
19892;DHT22;10108;50.142;8.724;2023-06-24T02:34:23;18.70;99.90
19892;DHT22;10108;50.142;8.724;2023-06-24T02:36:49;18.70;99.90
19892;DHT22;10108;50.142;8.724;2023-06-24T02:39:16;18.70;99.90
19892;DHT22;10108;50.142;8.724;2023-06-24T02:41:42;18.70;99.90
19892;DHT22;10108;50.142;8.724;2023-06-24T02:44:10;18.70;99.90
19892;DHT22;10108;50.142;8.724;2023-06-24T02:46:36;18.70;99.90
19892;DHT22;10108;50.142;8.724;2023-06-24T02:49:04;18.70;99.90
19892;DHT22;10108;50.142;8.724;2023-06-24T02:51:31;18.70;99.90
19892;DHT22;10108;50.142;8.724;2023-06-24T02:53:58;18.70;99.90
19892;DHT22;10108;50.142;8.724;2023-06-24T02:56:41;18.60;99.90
19892;DHT22;10108;50.142;8.724;2023-06-24T02:59:13;18.70;99.90
19892;DHT22;10108;50.142;8.724;2023-06-24T03:01:40;18.60;99.90
19892;DHT22;10108;50.142;8.724;2023-06-24T03:04:11;18.60;99.90
19892;DHT22;10108;50.142;8.724;2023-06-24T03:06:38;18.50;99.90
19892;DHT22;10108;50.142;8.724;2023-06-24T03:09:05;18.50;99.90
19892;DHT22;10108;50.142;8.724;2023-06-24T03:11:44;18.50;99.90
19892;DHT22;10108;50.142;8.724;2023-06-24T03:14:14;18.50;99.90
19892;DHT22;10108;50.142;8.724;2023-06-24T03:16:43;18.50;99.90
19892;DHT22;10108;50.142;8.724;2023-06-24T03:19:13;18.40;99.90
19892;DHT22;10108;50.142;8.724;2023-06-24T03:21:39;18.40;99.90
19892;DHT22;10108;50.142;8.724;2023-06-24T03:24:09;18.40;99.90
19892;DHT22;10108;50.142;8.724;2023-06-24T03:26:38;18.40;99.90
19892;DHT22;10108;50.142;8.724;2023-06-24T03:29:08;18.40;99.90
19892;DHT22;10108;50.142;8.724;2023-06-24T03:31:37;18.40;99.90
19892;DHT22;10108;50.142;8.724;2023-06-24T03:34:04;18.40;99.90
19892;DHT22;10108;50.142;8.724;2023-06-24T03:36:31;18.40;99.90
19892;DHT22;10108;50.142;8.724;2023-06-24T03:39:01;18.40;99.90
19892;DHT22;10108;50.142;8.724;2023-06-24T03:41:29;18.40;99.90
19892;DHT22;10108;50.142;8.724;2023-06-24T03:43:55;18.40;99.90
19892;DHT22;10108;50.142;8.724;2023-06-24T03:46:21;18.40;99.90
19892;DHT22;10108;50.142;8.724;2023-06-24T03:48:49;18.40;99.90
19892;DHT22;10108;50.142;8.724;2023-06-24T03:51:16;18.30;99.90
19892;DHT22;10108;50.142;8.724;2023-06-24T03:53:42;18.30;99.90
19892;DHT22;10108;50.142;8.724;2023-06-24T03:56:09;18.30;99.90
19892;DHT22;10108;50.142;8.724;2023-06-24T03:58:35;18.20;99.90
19892;DHT22;10108;50.142;8.724;2023-06-24T04:01:02;18.20;99.90
19892;DHT22;10108;50.142;8.724;2023-06-24T04:03:28;18.30;99.90
19892;DHT22;10108;50.142;8.724;2023-06-24T04:05:55;18.30;99.90
19892;DHT22;10108;50.142;8.724;2023-06-24T04:08:22;18.30;99.90
19892;DHT22;10108;50.142;8.724;2023-06-24T04:10:48;18.30;99.90
19892;DHT22;10108;50.142;8.724;2023-06-24T04:13:14;18.30;99.90
19892;DHT22;10108;50.142;8.724;2023-06-24T04:15:41;18.30;99.90
19892;DHT22;10108;50.142;8.724;2023-06-24T04:18:08;18.40;99.90
19892;DHT22;10108;50.142;8.724;2023-06-24T04:20:34;18.40;99.90
19892;DHT22;10108;50.142;8.724;2023-06-24T04:23:00;18.40;99.90
19892;DHT22;10108;50.142;8.724;2023-06-24T04:25:27;18.40;99.90
19892;DHT22;10108;50.142;8.724;2023-06-24T04:27:54;18.40;99.90
19892;DHT22;10108;50.142;8.724;2023-06-24T04:30:20;18.40;99.90
19892;DHT22;10108;50.142;8.724;2023-06-24T04:32:46;18.40;99.90
19892;DHT22;10108;50.142;8.724;2023-06-24T04:35:12;18.40;99.90
19892;DHT22;10108;50.142;8.724;2023-06-24T04:37:38;18.40;99.90
19892;DHT22;10108;50.142;8.724;2023-06-24T04:40:05;18.50;99.90
19892;DHT22;10108;50.142;8.724;2023-06-24T04:42:32;18.50;99.90
19892;DHT22;10108;50.142;8.724;2023-06-24T04:44:58;18.50;99.90
19892;DHT22;10108;50.142;8.724;2023-06-24T04:47:24;18.50;99.90
19892;DHT22;10108;50.142;8.724;2023-06-24T04:49:50;18.60;99.90
19892;DHT22;10108;50.142;8.724;2023-06-24T04:52:16;18.60;99.90
19892;DHT22;10108;50.142;8.724;2023-06-24T04:54:42;18.60;99.90
19892;DHT22;10108;50.142;8.724;2023-06-24T04:57:09;18.70;99.90
19892;DHT22;10108;50.142;8.724;2023-06-24T04:59:35;18.70;99.90
19892;DHT22;10108;50.142;8.724;2023-06-24T05:02:04;18.70;99.90
19892;DHT22;10108;50.142;8.724;2023-06-24T05:04:30;18.70;99.90
19892;DHT22;10108;50.142;8.724;2023-06-24T05:06:56;18.70;99.90
19892;DHT22;10108;50.142;8.724;2023-06-24T05:09:22;18.70;99.90
19892;DHT22;10108;50.142;8.724;2023-06-24T05:11:48;18.80;99.90
19892;DHT22;10108;50.142;8.724;2023-06-24T05:14:14;18.80;99.90
19892;DHT22;10108;50.142;8.724;2023-06-24T05:16:40;18.80;99.90
19892;DHT22;10108;50.142;8.724;2023-06-24T05:19:06;18.90;99.90
19892;DHT22;10108;50.142;8.724;2023-06-24T05:21:32;18.90;99.90
19892;DHT22;10108;50.142;8.724;2023-06-24T05:23:59;18.90;99.90
19892;DHT22;10108;50.142;8.724;2023-06-24T05:26:25;18.90;99.90
19892;DHT22;10108;50.142;8.724;2023-06-24T05:28:51;19.00;99.90
19892;DHT22;10108;50.142;8.724;2023-06-24T05:31:18;19.00;99.90
19892;DHT22;10108;50.142;8.724;2023-06-24T05:33:44;19.10;99.90
19892;DHT22;10108;50.142;8.724;2023-06-24T05:36:10;19.20;99.90
19892;DHT22;10108;50.142;8.724;2023-06-24T05:38:36;19.20;99.90
19892;DHT22;10108;50.142;8.724;2023-06-24T05:41:02;19.30;99.90
19892;DHT22;10108;50.142;8.724;2023-06-24T05:43:29;19.40;99.90
19892;DHT22;10108;50.142;8.724;2023-06-24T05:45:55;19.50;99.90
19892;DHT22;10108;50.142;8.724;2023-06-24T05:48:21;19.60;99.90
19892;DHT22;10108;50.142;8.724;2023-06-24T05:50:47;19.60;99.90
19892;DHT22;10108;50.142;8.724;2023-06-24T05:53:13;19.60;99.90
19892;DHT22;10108;50.142;8.724;2023-06-24T05:55:39;19.70;99.90
19892;DHT22;10108;50.142;8.724;2023-06-24T05:58:05;19.80;99.90
19892;DHT22;10108;50.142;8.724;2023-06-24T06:00:31;19.80;99.90
19892;DHT22;10108;50.142;8.724;2023-06-24T06:02:57;19.80;99.90
19892;DHT22;10108;50.142;8.724;2023-06-24T06:05:24;19.90;99.90
19892;DHT22;10108;50.142;8.724;2023-06-24T06:07:50;19.90;99.90
19892;DHT22;10108;50.142;8.724;2023-06-24T06:10:16;19.90;99.90
19892;DHT22;10108;50.142;8.724;2023-06-24T06:12:44;19.90;99.90
19892;DHT22;10108;50.142;8.724;2023-06-24T06:15:10;20.00;99.90
19892;DHT22;10108;50.142;8.724;2023-06-24T06:17:36;20.00;99.90
19892;DHT22;10108;50.142;8.724;2023-06-24T06:20:02;20.00;99.90
19892;DHT22;10108;50.142;8.724;2023-06-24T06:22:29;20.00;99.90
19892;DHT22;10108;50.142;8.724;2023-06-24T06:24:55;19.90;99.90
19892;DHT22;10108;50.142;8.724;2023-06-24T06:27:21;19.90;99.90
19892;DHT22;10108;50.142;8.724;2023-06-24T06:29:47;20.00;99.90
19892;DHT22;10108;50.142;8.724;2023-06-24T06:32:13;20.00;99.90
19892;DHT22;10108;50.142;8.724;2023-06-24T06:34:39;19.90;99.90
19892;DHT22;10108;50.142;8.724;2023-06-24T06:37:05;20.00;99.90
19892;DHT22;10108;50.142;8.724;2023-06-24T06:39:32;20.00;99.90
19892;DHT22;10108;50.142;8.724;2023-06-24T06:41:58;20.00;99.90
19892;DHT22;10108;50.142;8.724;2023-06-24T06:44:24;20.00;99.90
19892;DHT22;10108;50.142;8.724;2023-06-24T06:46:50;20.00;99.90
19892;DHT22;10108;50.142;8.724;2023-06-24T06:49:16;20.10;99.90
19892;DHT22;10108;50.142;8.724;2023-06-24T06:51:42;20.00;99.90
19892;DHT22;10108;50.142;8.724;2023-06-24T06:54:08;20.10;99.90
19892;DHT22;10108;50.142;8.724;2023-06-24T06:56:34;20.10;99.90
19892;DHT22;10108;50.142;8.724;2023-06-24T06:59:00;20.10;99.90
19892;DHT22;10108;50.142;8.724;2023-06-24T07:01:27;20.20;99.90
19892;DHT22;10108;50.142;8.724;2023-06-24T07:03:53;20.10;99.90
19892;DHT22;10108;50.142;8.724;2023-06-24T07:06:19;20.20;99.90
19892;DHT22;10108;50.142;8.724;2023-06-24T07:08:45;20.20;99.90
19892;DHT22;10108;50.142;8.724;2023-06-24T07:11:11;20.20;99.90
19892;DHT22;10108;50.142;8.724;2023-06-24T07:13:38;20.20;99.90
19892;DHT22;10108;50.142;8.724;2023-06-24T07:16:04;20.20;99.90
19892;DHT22;10108;50.142;8.724;2023-06-24T07:18:30;20.20;99.90
19892;DHT22;10108;50.142;8.724;2023-06-24T07:20:56;20.20;99.90
19892;DHT22;10108;50.142;8.724;2023-06-24T07:23:23;20.20;99.90
19892;DHT22;10108;50.142;8.724;2023-06-24T07:25:49;20.30;99.90
19892;DHT22;10108;50.142;8.724;2023-06-24T07:28:16;20.30;99.90
19892;DHT22;10108;50.142;8.724;2023-06-24T07:30:42;20.30;99.90
19892;DHT22;10108;50.142;8.724;2023-06-24T07:33:08;20.30;99.90
19892;DHT22;10108;50.142;8.724;2023-06-24T07:35:34;20.40;99.90
19892;DHT22;10108;50.142;8.724;2023-06-24T07:38:00;20.50;99.90
19892;DHT22;10108;50.142;8.724;2023-06-24T07:40:27;20.50;99.90
19892;DHT22;10108;50.142;8.724;2023-06-24T07:42:53;20.50;99.90
19892;DHT22;10108;50.142;8.724;2023-06-24T07:45:20;20.50;99.90
19892;DHT22;10108;50.142;8.724;2023-06-24T07:47:46;20.50;99.90
19892;DHT22;10108;50.142;8.724;2023-06-24T07:50:12;20.50;99.90
19892;DHT22;10108;50.142;8.724;2023-06-24T07:52:39;20.50;99.90
19892;DHT22;10108;50.142;8.724;2023-06-24T07:55:05;20.60;99.90
19892;DHT22;10108;50.142;8.724;2023-06-24T07:57:31;20.60;99.90
19892;DHT22;10108;50.142;8.724;2023-06-24T07:59:57;20.70;99.90
19892;DHT22;10108;50.142;8.724;2023-06-24T08:02:24;20.70;99.90
19892;DHT22;10108;50.142;8.724;2023-06-24T08:04:50;20.80;99.90
19892;DHT22;10108;50.142;8.724;2023-06-24T08:07:16;20.80;99.90
19892;DHT22;10108;50.142;8.724;2023-06-24T08:09:42;20.90;99.90
19892;DHT22;10108;50.142;8.724;2023-06-24T08:12:09;20.90;99.90
19892;DHT22;10108;50.142;8.724;2023-06-24T08:14:35;20.90;99.90
19892;DHT22;10108;50.142;8.724;2023-06-24T08:17:02;21.00;99.90
19892;DHT22;10108;50.142;8.724;2023-06-24T08:19:28;21.00;99.90
19892;DHT22;10108;50.142;8.724;2023-06-24T08:21:54;21.00;99.90
19892;DHT22;10108;50.142;8.724;2023-06-24T08:24:20;21.00;99.90
19892;DHT22;10108;50.142;8.724;2023-06-24T08:26:46;21.10;99.90
19892;DHT22;10108;50.142;8.724;2023-06-24T08:35:58;21.10;99.90
19892;DHT22;10108;50.142;8.724;2023-06-24T08:38:24;21.10;99.90
19892;DHT22;10108;50.142;8.724;2023-06-24T08:40:50;21.10;99.90
19892;DHT22;10108;50.142;8.724;2023-06-24T08:43:17;21.20;99.90
19892;DHT22;10108;50.142;8.724;2023-06-24T08:45:43;21.20;99.90
19892;DHT22;10108;50.142;8.724;2023-06-24T08:48:40;21.20;99.90
19892;DHT22;10108;50.142;8.724;2023-06-24T08:51:08;21.20;99.90
19892;DHT22;10108;50.142;8.724;2023-06-24T08:53:37;21.20;99.90
19892;DHT22;10108;50.142;8.724;2023-06-24T08:56:04;21.30;99.90
19892;DHT22;10108;50.142;8.724;2023-06-24T08:58:30;21.30;99.90
19892;DHT22;10108;50.142;8.724;2023-06-24T09:00:56;21.30;99.90
19892;DHT22;10108;50.142;8.724;2023-06-24T09:03:23;21.40;99.90
19892;DHT22;10108;50.142;8.724;2023-06-24T09:05:49;21.40;99.90
19892;DHT22;10108;50.142;8.724;2023-06-24T09:08:15;21.40;99.90
19892;DHT22;10108;50.142;8.724;2023-06-24T09:10:44;21.40;99.90
19892;DHT22;10108;50.142;8.724;2023-06-24T09:13:10;21.40;99.90
19892;DHT22;10108;50.142;8.724;2023-06-24T09:15:37;21.40;99.90
19892;DHT22;10108;50.142;8.724;2023-06-24T09:18:04;21.50;99.90
19892;DHT22;10108;50.142;8.724;2023-06-24T09:20:31;21.50;99.90
19892;DHT22;10108;50.142;8.724;2023-06-24T09:23:02;21.60;99.90
19892;DHT22;10108;50.142;8.724;2023-06-24T09:25:29;21.60;99.90
19892;DHT22;10108;50.142;8.724;2023-06-24T09:27:59;21.60;99.90
19892;DHT22;10108;50.142;8.724;2023-06-24T09:30:26;21.60;99.90
19892;DHT22;10108;50.142;8.724;2023-06-24T09:32:53;21.70;99.90
19892;DHT22;10108;50.142;8.724;2023-06-24T09:35:21;21.70;99.90
19892;DHT22;10108;50.142;8.724;2023-06-24T09:37:54;21.70;99.90
19892;DHT22;10108;50.142;8.724;2023-06-24T09:40:22;21.80;99.90
19892;DHT22;10108;50.142;8.724;2023-06-24T09:42:56;21.80;99.90
19892;DHT22;10108;50.142;8.724;2023-06-24T09:45:27;21.80;99.90
19892;DHT22;10108;50.142;8.724;2023-06-24T09:47:54;21.80;99.90
19892;DHT22;10108;50.142;8.724;2023-06-24T09:50:21;21.80;99.90
19892;DHT22;10108;50.142;8.724;2023-06-24T09:52:48;21.80;99.90
19892;DHT22;10108;50.142;8.724;2023-06-24T09:55:17;21.80;99.90
19892;DHT22;10108;50.142;8.724;2023-06-24T09:57:45;21.90;99.70
19892;DHT22;10108;50.142;8.724;2023-06-24T10:00:14;21.90;99.80
19892;DHT22;10108;50.142;8.724;2023-06-24T10:02:44;21.90;99.90
19892;DHT22;10108;50.142;8.724;2023-06-24T10:05:12;21.90;99.90
19892;DHT22;10108;50.142;8.724;2023-06-24T10:07:40;21.90;99.40
19892;DHT22;10108;50.142;8.724;2023-06-24T10:10:07;21.90;99.50
19892;DHT22;10108;50.142;8.724;2023-06-24T10:12:37;21.90;99.80
19892;DHT22;10108;50.142;8.724;2023-06-24T10:15:04;21.90;99.90
19892;DHT22;10108;50.142;8.724;2023-06-24T10:17:31;21.90;99.90
19892;DHT22;10108;50.142;8.724;2023-06-24T10:19:57;21.90;99.60
19892;DHT22;10108;50.142;8.724;2023-06-24T10:22:23;21.90;99.60
19892;DHT22;10108;50.142;8.724;2023-06-24T10:24:52;22.00;99.30
19892;DHT22;10108;50.142;8.724;2023-06-24T10:27:23;22.00;99.20
19892;DHT22;10108;50.142;8.724;2023-06-24T10:29:51;22.00;99.40
19892;DHT22;10108;50.142;8.724;2023-06-24T10:32:18;22.00;99.90
19892;DHT22;10108;50.142;8.724;2023-06-24T10:34:46;22.00;99.80
19892;DHT22;10108;50.142;8.724;2023-06-24T10:37:20;22.00;99.40
19892;DHT22;10108;50.142;8.724;2023-06-24T10:39:53;22.00;99.30
19892;DHT22;10108;50.142;8.724;2023-06-24T10:42:33;22.10;99.40
19892;DHT22;10108;50.142;8.724;2023-06-24T10:47:44;22.10;98.20
19892;DHT22;10108;50.142;8.724;2023-06-24T10:50:12;22.20;97.90
19892;DHT22;10108;50.142;8.724;2023-06-24T10:52:41;22.30;97.30
19892;DHT22;10108;50.142;8.724;2023-06-24T10:55:07;22.40;99.50
19892;DHT22;10108;50.142;8.724;2023-06-24T10:57:34;22.40;99.90
19892;DHT22;10108;50.142;8.724;2023-06-24T11:00:02;22.40;99.90
19892;DHT22;10108;50.142;8.724;2023-06-24T11:02:29;22.40;99.70
19892;DHT22;10108;50.142;8.724;2023-06-24T11:05:02;22.40;99.50
19892;DHT22;10108;50.142;8.724;2023-06-24T11:07:34;22.40;99.90
19892;DHT22;10108;50.142;8.724;2023-06-24T11:12:36;22.40;99.60
19892;DHT22;10108;50.142;8.724;2023-06-24T11:15:12;22.50;97.60
19892;DHT22;10108;50.142;8.724;2023-06-24T11:17:40;22.60;96.90
19892;DHT22;10108;50.142;8.724;2023-06-24T11:20:07;22.70;97.20
19892;DHT22;10108;50.142;8.724;2023-06-24T11:22:34;22.80;97.80
19892;DHT22;10108;50.142;8.724;2023-06-24T11:25:00;22.80;99.90
19892;DHT22;10108;50.142;8.724;2023-06-24T11:27:28;22.70;99.90
19892;DHT22;10108;50.142;8.724;2023-06-24T11:29:56;22.70;99.80
19892;DHT22;10108;50.142;8.724;2023-06-24T11:32:24;22.60;99.00
19892;DHT22;10108;50.142;8.724;2023-06-24T11:34:50;22.50;99.90
19892;DHT22;10108;50.142;8.724;2023-06-24T11:37:18;22.40;99.90
19892;DHT22;10108;50.142;8.724;2023-06-24T11:39:44;22.40;98.70
19892;DHT22;10108;50.142;8.724;2023-06-24T11:42:11;22.40;99.30
19892;DHT22;10108;50.142;8.724;2023-06-24T11:44:42;22.50;99.00
19892;DHT22;10108;50.142;8.724;2023-06-24T11:47:11;22.50;99.90
19892;DHT22;10108;50.142;8.724;2023-06-24T11:49:55;22.50;99.90
19892;DHT22;10108;50.142;8.724;2023-06-24T11:55:27;22.50;99.90
19892;DHT22;10108;50.142;8.724;2023-06-24T11:57:55;22.40;99.90
19892;DHT22;10108;50.142;8.724;2023-06-24T12:00:30;22.40;99.70
19892;DHT22;10108;50.142;8.724;2023-06-24T12:02:58;22.50;97.30
19892;DHT22;10108;50.142;8.724;2023-06-24T12:05:28;22.60;98.10
19892;DHT22;10108;50.142;8.724;2023-06-24T12:07:56;22.70;98.20
19892;DHT22;10108;50.142;8.724;2023-06-24T12:10:23;22.70;99.40
19892;DHT22;10108;50.142;8.724;2023-06-24T12:12:50;22.60;99.90
19892;DHT22;10108;50.142;8.724;2023-06-24T12:15:16;22.60;99.90
19892;DHT22;10108;50.142;8.724;2023-06-24T12:17:43;22.70;99.90
19892;DHT22;10108;50.142;8.724;2023-06-24T12:20:09;22.70;98.80
19892;DHT22;10108;50.142;8.724;2023-06-24T12:22:36;22.70;98.70
19892;DHT22;10108;50.142;8.724;2023-06-24T12:25:03;22.70;99.20
19892;DHT22;10108;50.142;8.724;2023-06-24T12:27:29;22.80;99.20
19892;DHT22;10108;50.142;8.724;2023-06-24T12:29:55;22.80;98.90
19892;DHT22;10108;50.142;8.724;2023-06-24T12:32:22;22.90;97.90
19892;DHT22;10108;50.142;8.724;2023-06-24T12:34:48;23.00;98.10
19892;DHT22;10108;50.142;8.724;2023-06-24T12:37:14;23.10;98.80
19892;DHT22;10108;50.142;8.724;2023-06-24T12:39:40;23.10;98.80
19892;DHT22;10108;50.142;8.724;2023-06-24T12:42:06;23.10;99.20
19892;DHT22;10108;50.142;8.724;2023-06-24T12:44:32;23.10;99.40
19892;DHT22;10108;50.142;8.724;2023-06-24T12:46:59;23.00;99.20
19892;DHT22;10108;50.142;8.724;2023-06-24T12:49:25;23.00;98.80
19892;DHT22;10108;50.142;8.724;2023-06-24T12:51:51;23.00;98.90
19892;DHT22;10108;50.142;8.724;2023-06-24T12:54:17;23.10;98.50
19892;DHT22;10108;50.142;8.724;2023-06-24T12:56:43;23.20;97.60
19892;DHT22;10108;50.142;8.724;2023-06-24T12:59:09;23.40;97.70
19892;DHT22;10108;50.142;8.724;2023-06-24T13:01:35;23.50;97.60
19892;DHT22;10108;50.142;8.724;2023-06-24T13:04:01;23.50;97.90
19892;DHT22;10108;50.142;8.724;2023-06-24T13:06:28;23.50;97.80
19892;DHT22;10108;50.142;8.724;2023-06-24T13:08:54;23.50;97.60
19892;DHT22;10108;50.142;8.724;2023-06-24T13:11:20;23.50;97.50
19892;DHT22;10108;50.142;8.724;2023-06-24T13:13:46;23.40;97.00
19892;DHT22;10108;50.142;8.724;2023-06-24T13:16:12;23.40;97.20
19892;DHT22;10108;50.142;8.724;2023-06-24T13:18:38;23.30;97.40
19892;DHT22;10108;50.142;8.724;2023-06-24T13:21:04;23.30;97.70
19892;DHT22;10108;50.142;8.724;2023-06-24T13:23:30;23.30;97.80
19892;DHT22;10108;50.142;8.724;2023-06-24T13:25:57;23.30;97.70
19892;DHT22;10108;50.142;8.724;2023-06-24T13:28:23;23.30;97.60
19892;DHT22;10108;50.142;8.724;2023-06-24T13:30:49;23.30;97.80
19892;DHT22;10108;50.142;8.724;2023-06-24T13:33:16;23.40;97.80
19892;DHT22;10108;50.142;8.724;2023-06-24T13:35:42;23.40;98.00
19892;DHT22;10108;50.142;8.724;2023-06-24T13:38:08;23.40;97.70
19892;DHT22;10108;50.142;8.724;2023-06-24T13:40:35;23.50;97.70
19892;DHT22;10108;50.142;8.724;2023-06-24T13:43:01;23.50;97.70
19892;DHT22;10108;50.142;8.724;2023-06-24T13:45:27;23.50;97.60
19892;DHT22;10108;50.142;8.724;2023-06-24T13:47:53;23.50;97.50
19892;DHT22;10108;50.142;8.724;2023-06-24T13:50:21;23.40;97.30
19892;DHT22;10108;50.142;8.724;2023-06-24T13:52:47;23.40;97.20
19892;DHT22;10108;50.142;8.724;2023-06-24T13:55:13;23.40;97.40
19892;DHT22;10108;50.142;8.724;2023-06-24T13:57:40;23.40;97.70
19892;DHT22;10108;50.142;8.724;2023-06-24T14:00:07;23.40;97.90
19892;DHT22;10108;50.142;8.724;2023-06-24T14:02:38;23.40;98.20
19892;DHT22;10108;50.142;8.724;2023-06-24T14:05:05;23.40;98.40
19892;DHT22;10108;50.142;8.724;2023-06-24T14:07:31;23.40;98.40
19892;DHT22;10108;50.142;8.724;2023-06-24T14:09:57;23.40;98.50
19892;DHT22;10108;50.142;8.724;2023-06-24T14:12:24;23.40;98.60
19892;DHT22;10108;50.142;8.724;2023-06-24T14:14:51;23.40;98.60
19892;DHT22;10108;50.142;8.724;2023-06-24T14:17:17;23.40;98.50
19892;DHT22;10108;50.142;8.724;2023-06-24T14:19:43;23.40;98.30
19892;DHT22;10108;50.142;8.724;2023-06-24T14:22:09;23.40;98.40
19892;DHT22;10108;50.142;8.724;2023-06-24T14:24:36;23.40;98.40
19892;DHT22;10108;50.142;8.724;2023-06-24T14:27:05;23.40;98.90
19892;DHT22;10108;50.142;8.724;2023-06-24T14:29:32;23.40;98.50
19892;DHT22;10108;50.142;8.724;2023-06-24T14:31:58;23.30;98.90
19892;DHT22;10108;50.142;8.724;2023-06-24T14:34:24;23.30;98.20
19892;DHT22;10108;50.142;8.724;2023-06-24T14:36:50;23.40;97.40
19892;DHT22;10108;50.142;8.724;2023-06-24T14:39:16;23.50;96.60
19892;DHT22;10108;50.142;8.724;2023-06-24T14:41:43;23.60;95.90
19892;DHT22;10108;50.142;8.724;2023-06-24T14:44:10;23.70;97.30
19892;DHT22;10108;50.142;8.724;2023-06-24T14:46:37;23.70;97.20
19892;DHT22;10108;50.142;8.724;2023-06-24T14:49:03;23.80;96.90
19892;DHT22;10108;50.142;8.724;2023-06-24T14:51:29;23.80;95.80
19892;DHT22;10108;50.142;8.724;2023-06-24T14:53:55;23.80;96.00
19892;DHT22;10108;50.142;8.724;2023-06-24T14:56:21;23.80;95.90
19892;DHT22;10108;50.142;8.724;2023-06-24T14:58:47;23.80;95.80
19892;DHT22;10108;50.142;8.724;2023-06-24T15:01:13;23.80;95.70
19892;DHT22;10108;50.142;8.724;2023-06-24T15:03:39;23.80;96.00
19892;DHT22;10108;50.142;8.724;2023-06-24T15:06:05;23.80;96.00
19892;DHT22;10108;50.142;8.724;2023-06-24T15:08:31;23.80;95.80
19892;DHT22;10108;50.142;8.724;2023-06-24T15:10:58;23.70;95.80
19892;DHT22;10108;50.142;8.724;2023-06-24T15:13:24;23.60;96.30
19892;DHT22;10108;50.142;8.724;2023-06-24T15:15:51;23.60;96.80
19892;DHT22;10108;50.142;8.724;2023-06-24T15:18:29;23.60;96.90
19892;DHT22;10108;50.142;8.724;2023-06-24T15:20:58;23.60;96.90
19892;DHT22;10108;50.142;8.724;2023-06-24T15:23:24;23.60;96.90
19892;DHT22;10108;50.142;8.724;2023-06-24T15:25:54;23.60;96.90
19892;DHT22;10108;50.142;8.724;2023-06-24T15:28:20;23.60;97.30
19892;DHT22;10108;50.142;8.724;2023-06-24T15:30:46;23.60;96.80
19892;DHT22;10108;50.142;8.724;2023-06-24T15:33:14;23.60;96.80
19892;DHT22;10108;50.142;8.724;2023-06-24T15:35:40;23.70;96.80
19892;DHT22;10108;50.142;8.724;2023-06-24T15:38:06;23.70;94.90
19892;DHT22;10108;50.142;8.724;2023-06-24T15:40:35;23.80;94.70
19892;DHT22;10108;50.142;8.724;2023-06-24T15:43:07;23.90;95.60
19892;DHT22;10108;50.142;8.724;2023-06-24T15:45:33;23.90;96.20
19892;DHT22;10108;50.142;8.724;2023-06-24T15:47:59;23.80;96.90
19892;DHT22;10108;50.142;8.724;2023-06-24T15:50:26;23.80;96.60
19892;DHT22;10108;50.142;8.724;2023-06-24T15:52:52;23.80;96.20